sensor_id;sensor_type;location;lat;lon;timestamp;P1;durP1;ratioP1;P2;durP2;ratioP2
21761;SDS011;11203;50.870;20.682;2022-09-27T00:01:21;97.22;;;57.83;;
21761;SDS011;11203;50.870;20.682;2022-09-27T00:03:47;96.72;;;61.00;;
21761;SDS011;11203;50.870;20.682;2022-09-27T00:06:15;104.65;;;62.95;;
21761;SDS011;11203;50.870;20.682;2022-09-27T00:08:47;109.90;;;67.47;;
21761;SDS011;11203;50.870;20.682;2022-09-27T00:11:15;121.78;;;68.00;;
21761;SDS011;11203;50.870;20.682;2022-09-27T00:13:58;120.15;;;71.45;;
21761;SDS011;11203;50.870;20.682;2022-09-27T00:16:26;109.35;;;64.97;;
21761;SDS011;11203;50.870;20.682;2022-09-27T00:18:59;111.65;;;68.75;;
21761;SDS011;11203;50.870;20.682;2022-09-27T00:21:28;169.88;;;105.82;;
21761;SDS011;11203;50.870;20.682;2022-09-27T00:23:56;153.07;;;96.22;;
21761;SDS011;11203;50.870;20.682;2022-09-27T00:26:23;133.35;;;73.10;;
21761;SDS011;11203;50.870;20.682;2022-09-27T00:28:50;205.20;;;97.60;;
21761;SDS011;11203;50.870;20.682;2022-09-27T00:31:27;152.60;;;76.72;;
21761;SDS011;11203;50.870;20.682;2022-09-27T00:33:55;139.93;;;67.88;;
21761;SDS011;11203;50.870;20.682;2022-09-27T00:36:24;127.15;;;69.38;;
21761;SDS011;11203;50.870;20.682;2022-09-27T00:38:51;157.02;;;84.50;;
21761;SDS011;11203;50.870;20.682;2022-09-27T00:41:18;155.10;;;88.10;;
21761;SDS011;11203;50.870;20.682;2022-09-27T00:43:53;155.35;;;87.07;;
21761;SDS011;11203;50.870;20.682;2022-09-27T00:46:43;139.65;;;71.82;;
21761;SDS011;11203;50.870;20.682;2022-09-27T00:49:36;86.80;;;49.03;;
21761;SDS011;11203;50.870;20.682;2022-09-27T00:55:23;88.72;;;42.90;;
21761;SDS011;11203;50.870;20.682;2022-09-27T00:57:58;95.78;;;43.17;;
21761;SDS011;11203;50.870;20.682;2022-09-27T01:00:26;76.03;;;40.33;;
21761;SDS011;11203;50.870;20.682;2022-09-27T01:02:52;74.35;;;40.67;;
21761;SDS011;11203;50.870;20.682;2022-09-27T01:05:21;71.65;;;39.83;;
21761;SDS011;11203;50.870;20.682;2022-09-27T01:07:50;70.95;;;39.28;;
21761;SDS011;11203;50.870;20.682;2022-09-27T01:10:20;73.28;;;39.15;;
21761;SDS011;11203;50.870;20.682;2022-09-27T01:13:12;63.20;;;36.25;;
21761;SDS011;11203;50.870;20.682;2022-09-27T01:15:52;59.70;;;37.20;;
21761;SDS011;11203;50.870;20.682;2022-09-27T01:24:07;62.67;;;38.63;;
21761;SDS011;11203;50.870;20.682;2022-09-27T01:30:24;60.75;;;36.22;;
21761;SDS011;11203;50.870;20.682;2022-09-27T01:39:15;48.50;;;33.55;;
21761;SDS011;11203;50.870;20.682;2022-09-27T01:42:10;49.78;;;33.47;;
21761;SDS011;11203;50.870;20.682;2022-09-27T01:45:12;51.75;;;32.80;;
21761;SDS011;11203;50.870;20.682;2022-09-27T01:47:56;69.35;;;36.17;;
21761;SDS011;11203;50.870;20.682;2022-09-27T01:50:43;60.97;;;34.47;;
21761;SDS011;11203;50.870;20.682;2022-09-27T01:53:20;58.60;;;36.00;;
21761;SDS011;11203;50.870;20.682;2022-09-27T01:55:57;65.85;;;35.42;;
21761;SDS011;11203;50.870;20.682;2022-09-27T02:01:09;97.28;;;39.00;;
21761;SDS011;11203;50.870;20.682;2022-09-27T02:03:39;78.47;;;37.67;;
21761;SDS011;11203;50.870;20.682;2022-09-27T02:06:20;93.22;;;40.60;;
21761;SDS011;11203;50.870;20.682;2022-09-27T02:11:24;121.75;;;40.42;;
21761;SDS011;11203;50.870;20.682;2022-09-27T02:21:49;289.35;;;43.88;;
21761;SDS011;11203;50.870;20.682;2022-09-27T02:24:46;208.07;;;42.30;;
21761;SDS011;11203;50.870;20.682;2022-09-27T02:27:26;252.85;;;43.45;;
21761;SDS011;11203;50.870;20.682;2022-09-27T02:30:05;114.22;;;35.47;;
21761;SDS011;11203;50.870;20.682;2022-09-27T02:32:37;179.48;;;37.10;;
21761;SDS011;11203;50.870;20.682;2022-09-27T02:37:42;256.58;;;49.65;;
21761;SDS011;11203;50.870;20.682;2022-09-27T02:40:08;454.88;;;76.38;;
21761;SDS011;11203;50.870;20.682;2022-09-27T02:42:35;412.60;;;86.47;;
21761;SDS011;11203;50.870;20.682;2022-09-27T02:45:02;269.77;;;57.13;;
21761;SDS011;11203;50.870;20.682;2022-09-27T02:47:34;349.02;;;54.20;;
21761;SDS011;11203;50.870;20.682;2022-09-27T02:53:13;353.77;;;39.78;;
21761;SDS011;11203;50.870;20.682;2022-09-27T03:05:31;239.40;;;32.33;;
21761;SDS011;11203;50.870;20.682;2022-09-27T03:08:03;237.95;;;35.65;;
21761;SDS011;11203;50.870;20.682;2022-09-27T03:10:31;199.65;;;36.33;;
21761;SDS011;11203;50.870;20.682;2022-09-27T03:12:57;159.10;;;33.90;;
21761;SDS011;11203;50.870;20.682;2022-09-27T03:15:23;148.50;;;33.35;;
21761;SDS011;11203;50.870;20.682;2022-09-27T03:17:49;228.95;;;59.20;;
21761;SDS011;11203;50.870;20.682;2022-09-27T03:20:15;213.18;;;33.38;;
21761;SDS011;11203;50.870;20.682;2022-09-27T03:22:42;137.50;;;28.70;;
21761;SDS011;11203;50.870;20.682;2022-09-27T03:25:10;100.70;;;26.38;;
21761;SDS011;11203;50.870;20.682;2022-09-27T03:27:36;236.85;;;32.90;;
21761;SDS011;11203;50.870;20.682;2022-09-27T03:30:02;171.68;;;32.75;;
21761;SDS011;11203;50.870;20.682;2022-09-27T03:32:30;239.77;;;31.02;;
21761;SDS011;11203;50.870;20.682;2022-09-27T03:34:56;189.32;;;38.55;;
21761;SDS011;11203;50.870;20.682;2022-09-27T03:37:22;109.93;;;31.88;;
21761;SDS011;11203;50.870;20.682;2022-09-27T03:39:48;102.07;;;31.27;;
21761;SDS011;11203;50.870;20.682;2022-09-27T03:42:14;112.15;;;37.35;;
21761;SDS011;11203;50.870;20.682;2022-09-27T03:44:40;449.42;;;97.43;;
21761;SDS011;11203;50.870;20.682;2022-09-27T03:47:07;358.08;;;72.90;;
21761;SDS011;11203;50.870;20.682;2022-09-27T03:49:33;230.18;;;48.42;;
21761;SDS011;11203;50.870;20.682;2022-09-27T03:51:59;207.40;;;44.05;;
21761;SDS011;11203;50.870;20.682;2022-09-27T03:54:26;182.18;;;38.97;;
21761;SDS011;11203;50.870;20.682;2022-09-27T03:56:51;265.90;;;55.83;;
21761;SDS011;11203;50.870;20.682;2022-09-27T03:59:17;287.40;;;74.70;;
21761;SDS011;11203;50.870;20.682;2022-09-27T04:01:43;238.23;;;66.68;;
21761;SDS011;11203;50.870;20.682;2022-09-27T04:04:09;266.20;;;70.75;;
21761;SDS011;11203;50.870;20.682;2022-09-27T04:06:36;341.85;;;79.38;;
21761;SDS011;11203;50.870;20.682;2022-09-27T04:09:02;260.40;;;55.03;;
21761;SDS011;11203;50.870;20.682;2022-09-27T04:11:28;221.50;;;37.33;;
21761;SDS011;11203;50.870;20.682;2022-09-27T04:13:54;134.02;;;28.95;;
21761;SDS011;11203;50.870;20.682;2022-09-27T04:16:21;218.57;;;60.33;;
21761;SDS011;11203;50.870;20.682;2022-09-27T04:18:47;197.77;;;61.10;;
21761;SDS011;11203;50.870;20.682;2022-09-27T04:21:13;128.77;;;61.10;;
21761;SDS011;11203;50.870;20.682;2022-09-27T04:23:39;193.38;;;43.20;;
21761;SDS011;11203;50.870;20.682;2022-09-27T04:26:05;220.07;;;50.28;;
21761;SDS011;11203;50.870;20.682;2022-09-27T04:28:32;271.05;;;54.42;;
21761;SDS011;11203;50.870;20.682;2022-09-27T04:30:58;276.08;;;82.00;;
21761;SDS011;11203;50.870;20.682;2022-09-27T04:33:24;284.02;;;72.65;;
21761;SDS011;11203;50.870;20.682;2022-09-27T04:35:50;116.63;;;38.83;;
21761;SDS011;11203;50.870;20.682;2022-09-27T04:38:35;302.00;;;40.88;;
21761;SDS011;11203;50.870;20.682;2022-09-27T04:41:01;230.35;;;41.95;;
21761;SDS011;11203;50.870;20.682;2022-09-27T04:43:28;175.68;;;27.80;;
21761;SDS011;11203;50.870;20.682;2022-09-27T04:45:54;77.05;;;25.63;;
21761;SDS011;11203;50.870;20.682;2022-09-27T04:48:20;115.45;;;25.70;;
21761;SDS011;11203;50.870;20.682;2022-09-27T04:50:46;124.72;;;25.73;;
21761;SDS011;11203;50.870;20.682;2022-09-27T04:53:15;163.40;;;28.67;;
21761;SDS011;11203;50.870;20.682;2022-09-27T04:55:45;115.95;;;27.80;;
21761;SDS011;11203;50.870;20.682;2022-09-27T04:58:11;133.60;;;24.75;;
21761;SDS011;11203;50.870;20.682;2022-09-27T05:00:37;97.55;;;26.50;;
21761;SDS011;11203;50.870;20.682;2022-09-27T05:03:03;171.10;;;25.67;;
21761;SDS011;11203;50.870;20.682;2022-09-27T05:05:29;160.05;;;26.83;;
21761;SDS011;11203;50.870;20.682;2022-09-27T05:07:55;148.55;;;26.42;;
21761;SDS011;11203;50.870;20.682;2022-09-27T05:10:21;262.33;;;42.30;;
21761;SDS011;11203;50.870;20.682;2022-09-27T05:12:47;275.38;;;53.88;;
21761;SDS011;11203;50.870;20.682;2022-09-27T05:15:13;429.92;;;80.10;;
21761;SDS011;11203;50.870;20.682;2022-09-27T05:17:39;425.27;;;66.25;;
21761;SDS011;11203;50.870;20.682;2022-09-27T05:20:05;220.05;;;53.80;;
21761;SDS011;11203;50.870;20.682;2022-09-27T05:22:33;277.85;;;46.63;;
21761;SDS011;11203;50.870;20.682;2022-09-27T05:25:00;133.02;;;27.63;;
21761;SDS011;11203;50.870;20.682;2022-09-27T05:27:26;117.93;;;27.17;;
21761;SDS011;11203;50.870;20.682;2022-09-27T05:29:52;206.52;;;26.00;;
21761;SDS011;11203;50.870;20.682;2022-09-27T05:32:18;121.63;;;25.02;;
21761;SDS011;11203;50.870;20.682;2022-09-27T05:34:45;229.65;;;25.38;;
21761;SDS011;11203;50.870;20.682;2022-09-27T05:37:11;279.27;;;50.67;;
21761;SDS011;11203;50.870;20.682;2022-09-27T05:39:38;126.88;;;23.38;;
21761;SDS011;11203;50.870;20.682;2022-09-27T05:42:07;128.80;;;26.20;;
21761;SDS011;11203;50.870;20.682;2022-09-27T05:44:34;108.65;;;22.77;;
21761;SDS011;11203;50.870;20.682;2022-09-27T05:47:01;105.00;;;23.42;;
21761;SDS011;11203;50.870;20.682;2022-09-27T05:49:28;164.52;;;26.63;;
21761;SDS011;11203;50.870;20.682;2022-09-27T05:51:54;98.40;;;22.67;;
21761;SDS011;11203;50.870;20.682;2022-09-27T05:54:20;201.95;;;41.47;;
21761;SDS011;11203;50.870;20.682;2022-09-27T05:56:46;110.60;;;41.28;;
21761;SDS011;11203;50.870;20.682;2022-09-27T05:59:13;110.95;;;30.35;;
21761;SDS011;11203;50.870;20.682;2022-09-27T06:01:39;258.70;;;32.50;;
21761;SDS011;11203;50.870;20.682;2022-09-27T06:04:05;167.05;;;24.88;;
21761;SDS011;11203;50.870;20.682;2022-09-27T06:06:31;191.50;;;22.92;;
21761;SDS011;11203;50.870;20.682;2022-09-27T06:09:01;213.00;;;25.45;;
21761;SDS011;11203;50.870;20.682;2022-09-27T06:11:27;214.02;;;24.98;;
21761;SDS011;11203;50.870;20.682;2022-09-27T06:13:53;243.57;;;25.35;;
21761;SDS011;11203;50.870;20.682;2022-09-27T06:16:20;230.50;;;27.08;;
21761;SDS011;11203;50.870;20.682;2022-09-27T06:18:46;56.00;;;23.63;;
21761;SDS011;11203;50.870;20.682;2022-09-27T06:21:12;69.40;;;23.13;;
21761;SDS011;11203;50.870;20.682;2022-09-27T06:23:38;80.35;;;21.40;;
21761;SDS011;11203;50.870;20.682;2022-09-27T06:26:04;97.72;;;21.27;;
21761;SDS011;11203;50.870;20.682;2022-09-27T06:28:32;68.95;;;21.13;;
21761;SDS011;11203;50.870;20.682;2022-09-27T06:31:03;187.98;;;23.88;;
21761;SDS011;11203;50.870;20.682;2022-09-27T06:33:32;117.28;;;23.38;;
21761;SDS011;11203;50.870;20.682;2022-09-27T06:36:02;158.25;;;28.95;;
21761;SDS011;11203;50.870;20.682;2022-09-27T06:38:31;131.30;;;27.40;;
21761;SDS011;11203;50.870;20.682;2022-09-27T06:41:01;67.85;;;26.23;;
21761;SDS011;11203;50.870;20.682;2022-09-27T06:43:29;56.17;;;23.85;;
21761;SDS011;11203;50.870;20.682;2022-09-27T06:45:59;76.15;;;22.05;;
21761;SDS011;11203;50.870;20.682;2022-09-27T06:48:32;73.43;;;23.98;;
21761;SDS011;11203;50.870;20.682;2022-09-27T06:51:02;72.47;;;23.42;;
21761;SDS011;11203;50.870;20.682;2022-09-27T06:53:28;46.78;;;23.67;;
21761;SDS011;11203;50.870;20.682;2022-09-27T06:55:57;54.10;;;22.08;;
21761;SDS011;11203;50.870;20.682;2022-09-27T06:58:27;59.28;;;21.20;;
21761;SDS011;11203;50.870;20.682;2022-09-27T07:01:11;64.70;;;21.58;;
21761;SDS011;11203;50.870;20.682;2022-09-27T07:03:38;53.55;;;25.70;;
21761;SDS011;11203;50.870;20.682;2022-09-27T07:06:10;56.88;;;25.67;;
21761;SDS011;11203;50.870;20.682;2022-09-27T07:08:42;67.55;;;24.70;;
21761;SDS011;11203;50.870;20.682;2022-09-27T07:11:08;49.22;;;24.15;;
21761;SDS011;11203;50.870;20.682;2022-09-27T07:13:34;59.85;;;24.15;;
21761;SDS011;11203;50.870;20.682;2022-09-27T07:16:04;84.78;;;22.92;;
21761;SDS011;11203;50.870;20.682;2022-09-27T07:18:31;75.57;;;25.30;;
21761;SDS011;11203;50.870;20.682;2022-09-27T07:20:58;67.38;;;26.55;;
21761;SDS011;11203;50.870;20.682;2022-09-27T07:23:26;51.15;;;25.55;;
21761;SDS011;11203;50.870;20.682;2022-09-27T07:25:52;69.78;;;24.85;;
21761;SDS011;11203;50.870;20.682;2022-09-27T07:28:18;54.78;;;27.83;;
21761;SDS011;11203;50.870;20.682;2022-09-27T07:30:45;69.50;;;26.95;;
21761;SDS011;11203;50.870;20.682;2022-09-27T07:33:11;57.15;;;25.80;;
21761;SDS011;11203;50.870;20.682;2022-09-27T07:35:38;49.75;;;23.17;;
21761;SDS011;11203;50.870;20.682;2022-09-27T07:38:05;59.92;;;29.02;;
21761;SDS011;11203;50.870;20.682;2022-09-27T07:40:36;62.83;;;23.67;;
21761;SDS011;11203;50.870;20.682;2022-09-27T07:43:03;72.72;;;24.55;;
21761;SDS011;11203;50.870;20.682;2022-09-27T07:45:29;55.10;;;22.77;;
21761;SDS011;11203;50.870;20.682;2022-09-27T07:47:56;50.10;;;22.90;;
21761;SDS011;11203;50.870;20.682;2022-09-27T07:50:22;42.20;;;24.13;;
21761;SDS011;11203;50.870;20.682;2022-09-27T07:52:49;47.33;;;23.85;;
21761;SDS011;11203;50.870;20.682;2022-09-27T07:55:15;46.22;;;24.90;;
21761;SDS011;11203;50.870;20.682;2022-09-27T07:57:42;54.75;;;31.52;;
21761;SDS011;11203;50.870;20.682;2022-09-27T08:00:11;154.32;;;69.82;;
21761;SDS011;11203;50.870;20.682;2022-09-27T08:02:40;41.47;;;29.00;;
21761;SDS011;11203;50.870;20.682;2022-09-27T08:05:08;39.22;;;28.70;;
21761;SDS011;11203;50.870;20.682;2022-09-27T08:07:35;36.53;;;29.05;;
21761;SDS011;11203;50.870;20.682;2022-09-27T08:10:04;44.95;;;35.72;;
21761;SDS011;11203;50.870;20.682;2022-09-27T08:12:32;36.33;;;27.83;;
21761;SDS011;11203;50.870;20.682;2022-09-27T08:14:58;33.50;;;25.58;;
21761;SDS011;11203;50.870;20.682;2022-09-27T08:17:28;32.58;;;26.58;;
21761;SDS011;11203;50.870;20.682;2022-09-27T08:19:56;32.03;;;26.33;;
21761;SDS011;11203;50.870;20.682;2022-09-27T08:22:22;33.03;;;24.48;;
21761;SDS011;11203;50.870;20.682;2022-09-27T08:24:48;30.48;;;24.77;;
21761;SDS011;11203;50.870;20.682;2022-09-27T08:27:15;34.47;;;25.77;;
21761;SDS011;11203;50.870;20.682;2022-09-27T08:29:41;35.10;;;26.52;;
21761;SDS011;11203;50.870;20.682;2022-09-27T08:32:08;33.50;;;27.30;;
21761;SDS011;11203;50.870;20.682;2022-09-27T08:34:38;66.47;;;42.90;;
21761;SDS011;11203;50.870;20.682;2022-09-27T08:37:04;37.20;;;28.33;;
21761;SDS011;11203;50.870;20.682;2022-09-27T08:39:30;38.90;;;27.88;;
21761;SDS011;11203;50.870;20.682;2022-09-27T08:47:38;40.33;;;29.42;;
21761;SDS011;11203;50.870;20.682;2022-09-27T08:50:30;33.17;;;27.40;;
21761;SDS011;11203;50.870;20.682;2022-09-27T08:56:06;33.17;;;27.15;;
21761;SDS011;11203;50.870;20.682;2022-09-27T09:01:11;48.38;;;33.45;;
21761;SDS011;11203;50.870;20.682;2022-09-27T09:03:43;31.63;;;27.80;;
21761;SDS011;11203;50.870;20.682;2022-09-27T09:21:17;31.42;;;27.00;;
21761;SDS011;11203;50.870;20.682;2022-09-27T09:24:56;52.90;;;37.83;;
21761;SDS011;11203;50.870;20.682;2022-09-27T09:27:40;39.83;;;31.00;;
21761;SDS011;11203;50.870;20.682;2022-09-27T09:33:28;27.42;;;23.83;;
21761;SDS011;11203;50.870;20.682;2022-09-27T09:41:26;31.83;;;25.60;;
21761;SDS011;11203;50.870;20.682;2022-09-27T09:44:09;40.25;;;30.95;;
21761;SDS011;11203;50.870;20.682;2022-09-27T09:46:48;35.50;;;29.75;;
21761;SDS011;11203;50.870;20.682;2022-09-27T09:51:52;43.13;;;34.05;;
21761;SDS011;11203;50.870;20.682;2022-09-27T09:54:40;34.72;;;30.05;;
21761;SDS011;11203;50.870;20.682;2022-09-27T09:57:22;40.65;;;32.20;;
21761;SDS011;11203;50.870;20.682;2022-09-27T10:00:00;51.05;;;38.78;;
21761;SDS011;11203;50.870;20.682;2022-09-27T10:02:33;66.72;;;48.03;;
21761;SDS011;11203;50.870;20.682;2022-09-27T10:05:03;38.85;;;32.13;;
21761;SDS011;11203;50.870;20.682;2022-09-27T10:07:31;40.42;;;31.60;;
21761;SDS011;11203;50.870;20.682;2022-09-27T10:09:59;37.03;;;31.08;;
21761;SDS011;11203;50.870;20.682;2022-09-27T10:12:28;52.95;;;39.70;;
21761;SDS011;11203;50.870;20.682;2022-09-27T10:14:56;39.08;;;33.17;;
21761;SDS011;11203;50.870;20.682;2022-09-27T10:17:27;28.60;;;25.38;;
21761;SDS011;11203;50.870;20.682;2022-09-27T10:20:16;44.50;;;34.13;;
21761;SDS011;11203;50.870;20.682;2022-09-27T10:23:11;30.88;;;26.63;;
21761;SDS011;11203;50.870;20.682;2022-09-27T10:28:35;27.63;;;23.30;;
21761;SDS011;11203;50.870;20.682;2022-09-27T10:31:07;54.58;;;37.85;;
21761;SDS011;11203;50.870;20.682;2022-09-27T10:33:38;32.08;;;25.83;;
21761;SDS011;11203;50.870;20.682;2022-09-27T10:36:30;23.45;;;20.98;;
21761;SDS011;11203;50.870;20.682;2022-09-27T10:39:00;22.65;;;19.80;;
21761;SDS011;11203;50.870;20.682;2022-09-27T10:43:57;24.73;;;21.63;;
21761;SDS011;11203;50.870;20.682;2022-09-27T10:46:54;20.50;;;18.40;;
21761;SDS011;11203;50.870;20.682;2022-09-27T10:49:28;22.48;;;20.08;;
21761;SDS011;11203;50.870;20.682;2022-09-27T10:52:06;26.92;;;23.17;;
21761;SDS011;11203;50.870;20.682;2022-09-27T10:54:43;19.92;;;17.30;;
21761;SDS011;11203;50.870;20.682;2022-09-27T10:57:18;19.80;;;17.77;;
21761;SDS011;11203;50.870;20.682;2022-09-27T10:59:51;23.13;;;19.50;;
21761;SDS011;11203;50.870;20.682;2022-09-27T11:02:22;24.08;;;18.02;;
21761;SDS011;11203;50.870;20.682;2022-09-27T11:10:43;56.90;;;42.72;;
21761;SDS011;11203;50.870;20.682;2022-09-27T11:13:31;21.02;;;17.63;;
21761;SDS011;11203;50.870;20.682;2022-09-27T11:29:22;37.47;;;24.70;;
21761;SDS011;11203;50.870;20.682;2022-09-27T11:34:38;18.67;;;15.10;;
21761;SDS011;11203;50.870;20.682;2022-09-27T11:46:35;14.13;;;12.63;;
21761;SDS011;11203;50.870;20.682;2022-09-27T11:58:38;15.77;;;14.18;;
21761;SDS011;11203;50.870;20.682;2022-09-27T12:10:03;14.88;;;12.52;;
21761;SDS011;11203;50.870;20.682;2022-09-27T12:12:35;15.70;;;13.88;;
21761;SDS011;11203;50.870;20.682;2022-09-27T12:15:11;15.52;;;13.93;;
21761;SDS011;11203;50.870;20.682;2022-09-27T12:17:48;15.50;;;13.95;;
21761;SDS011;11203;50.870;20.682;2022-09-27T12:20:24;15.18;;;13.68;;
21761;SDS011;11203;50.870;20.682;2022-09-27T12:23:02;14.70;;;13.15;;
21761;SDS011;11203;50.870;20.682;2022-09-27T12:25:35;17.85;;;14.30;;
21761;SDS011;11203;50.870;20.682;2022-09-27T12:28:13;16.95;;;15.15;;
21761;SDS011;11203;50.870;20.682;2022-09-27T12:30:51;16.50;;;14.80;;
21761;SDS011;11203;50.870;20.682;2022-09-27T12:36:35;18.35;;;14.93;;
21761;SDS011;11203;50.870;20.682;2022-09-27T12:45:12;19.58;;;17.38;;
21761;SDS011;11203;50.870;20.682;2022-09-27T13:00:08;14.45;;;13.05;;
21761;SDS011;11203;50.870;20.682;2022-09-27T13:02:57;15.57;;;14.07;;
21761;SDS011;11203;50.870;20.682;2022-09-27T13:06:17;15.85;;;14.27;;
21761;SDS011;11203;50.870;20.682;2022-09-27T13:14:27;15.13;;;13.63;;
21761;SDS011;11203;50.870;20.682;2022-09-27T13:16:59;15.70;;;14.30;;
21761;SDS011;11203;50.870;20.682;2022-09-27T13:22:04;16.13;;;14.45;;
21761;SDS011;11203;50.870;20.682;2022-09-27T13:25:00;15.38;;;13.88;;
21761;SDS011;11203;50.870;20.682;2022-09-27T13:32:38;15.93;;;13.82;;
21761;SDS011;11203;50.870;20.682;2022-09-27T13:35:16;19.20;;;14.98;;
21761;SDS011;11203;50.870;20.682;2022-09-27T13:40:24;17.15;;;13.85;;
21761;SDS011;11203;50.870;20.682;2022-09-27T13:45:48;16.08;;;14.43;;
21761;SDS011;11203;50.870;20.682;2022-09-27T13:51:18;51.50;;;20.02;;
21761;SDS011;11203;50.870;20.682;2022-09-27T13:54:05;25.30;;;16.67;;
21761;SDS011;11203;50.870;20.682;2022-09-27T13:57:37;18.98;;;17.05;;
21761;SDS011;11203;50.870;20.682;2022-09-27T14:00:19;85.15;;;38.10;;
21761;SDS011;11203;50.870;20.682;2022-09-27T14:05:39;19.33;;;17.38;;
21761;SDS011;11203;50.870;20.682;2022-09-27T14:08:29;17.95;;;16.05;;
21761;SDS011;11203;50.870;20.682;2022-09-27T14:10:56;44.92;;;39.17;;
21761;SDS011;11203;50.870;20.682;2022-09-27T14:13:24;47.60;;;36.83;;
21761;SDS011;11203;50.870;20.682;2022-09-27T14:15:51;22.42;;;20.33;;
21761;SDS011;11203;50.870;20.682;2022-09-27T14:18:20;19.75;;;17.85;;
21761;SDS011;11203;50.870;20.682;2022-09-27T14:20:48;20.13;;;18.15;;
21761;SDS011;11203;50.870;20.682;2022-09-27T14:23:17;20.40;;;18.48;;
21761;SDS011;11203;50.870;20.682;2022-09-27T14:25:49;19.55;;;17.55;;
21761;SDS011;11203;50.870;20.682;2022-09-27T14:28:23;56.63;;;22.35;;
21761;SDS011;11203;50.870;20.682;2022-09-27T14:31:15;21.63;;;19.52;;
21761;SDS011;11203;50.870;20.682;2022-09-27T14:33:43;20.48;;;18.38;;
21761;SDS011;11203;50.870;20.682;2022-09-27T14:36:23;20.90;;;18.90;;
21761;SDS011;11203;50.870;20.682;2022-09-27T14:39:27;22.60;;;20.23;;
21761;SDS011;11203;50.870;20.682;2022-09-27T14:42:01;22.63;;;20.35;;
21761;SDS011;11203;50.870;20.682;2022-09-27T14:44:42;23.30;;;20.98;;
21761;SDS011;11203;50.870;20.682;2022-09-27T14:50:00;21.85;;;19.48;;
21761;SDS011;11203;50.870;20.682;2022-09-27T14:52:41;20.85;;;18.75;;
21761;SDS011;11203;50.870;20.682;2022-09-27T14:55:08;22.50;;;19.23;;
21761;SDS011;11203;50.870;20.682;2022-09-27T14:57:48;20.73;;;18.58;;
21761;SDS011;11203;50.870;20.682;2022-09-27T15:00:38;19.92;;;17.88;;
21761;SDS011;11203;50.870;20.682;2022-09-27T15:03:12;20.70;;;18.00;;
21761;SDS011;11203;50.870;20.682;2022-09-27T15:05:52;22.35;;;19.15;;
21761;SDS011;11203;50.870;20.682;2022-09-27T15:08:19;20.92;;;18.73;;
21761;SDS011;11203;50.870;20.682;2022-09-27T15:10:50;21.60;;;19.40;;
21761;SDS011;11203;50.870;20.682;2022-09-27T15:13:17;22.08;;;19.70;;
21761;SDS011;11203;50.870;20.682;2022-09-27T15:15:44;21.65;;;19.45;;
21761;SDS011;11203;50.870;20.682;2022-09-27T15:21:07;23.58;;;20.73;;
21761;SDS011;11203;50.870;20.682;2022-09-27T15:23:41;27.20;;;21.35;;
21761;SDS011;11203;50.870;20.682;2022-09-27T15:26:12;24.42;;;21.95;;
21761;SDS011;11203;50.870;20.682;2022-09-27T15:28:45;24.13;;;21.25;;
21761;SDS011;11203;50.870;20.682;2022-09-27T15:31:17;24.58;;;21.98;;
21761;SDS011;11203;50.870;20.682;2022-09-27T15:33:55;24.40;;;21.80;;
21761;SDS011;11203;50.870;20.682;2022-09-27T15:36:50;25.38;;;22.77;;
21761;SDS011;11203;50.870;20.682;2022-09-27T15:39:08;25.65;;;22.95;;
21761;SDS011;11203;50.870;20.682;2022-09-27T15:42:00;27.33;;;22.80;;
21761;SDS011;11203;50.870;20.682;2022-09-27T15:50:17;24.40;;;21.77;;
21761;SDS011;11203;50.870;20.682;2022-09-27T15:52:51;26.10;;;21.73;;
21761;SDS011;11203;50.870;20.682;2022-09-27T15:55:22;28.10;;;22.10;;
21761;SDS011;11203;50.870;20.682;2022-09-27T15:57:55;23.63;;;21.15;;
21761;SDS011;11203;50.870;20.682;2022-09-27T16:00:32;25.30;;;22.60;;
21761;SDS011;11203;50.870;20.682;2022-09-27T16:03:00;26.17;;;23.38;;
21761;SDS011;11203;50.870;20.682;2022-09-27T16:05:26;27.35;;;24.58;;
21761;SDS011;11203;50.870;20.682;2022-09-27T16:07:54;31.58;;;26.70;;
21761;SDS011;11203;50.870;20.682;2022-09-27T16:10:23;33.00;;;29.50;;
21761;SDS011;11203;50.870;20.682;2022-09-27T16:12:55;34.00;;;28.42;;
21761;SDS011;11203;50.870;20.682;2022-09-27T16:15:21;33.00;;;28.60;;
21761;SDS011;11203;50.870;20.682;2022-09-27T16:17:47;33.80;;;30.17;;
21761;SDS011;11203;50.870;20.682;2022-09-27T16:20:19;39.00;;;31.13;;
21761;SDS011;11203;50.870;20.682;2022-09-27T16:22:49;38.03;;;33.80;;
21761;SDS011;11203;50.870;20.682;2022-09-27T16:25:17;38.42;;;34.25;;
21761;SDS011;11203;50.870;20.682;2022-09-27T16:27:43;46.35;;;34.28;;
21761;SDS011;11203;50.870;20.682;2022-09-27T16:30:09;36.88;;;32.53;;
21761;SDS011;11203;50.870;20.682;2022-09-27T16:32:40;36.25;;;32.13;;
21761;SDS011;11203;50.870;20.682;2022-09-27T16:35:08;35.53;;;31.17;;
21761;SDS011;11203;50.870;20.682;2022-09-27T16:37:35;37.22;;;32.92;;
21761;SDS011;11203;50.870;20.682;2022-09-27T16:40:05;42.85;;;36.25;;
21761;SDS011;11203;50.870;20.682;2022-09-27T16:42:33;42.33;;;36.85;;
21761;SDS011;11203;50.870;20.682;2022-09-27T16:45:00;47.08;;;40.85;;
21761;SDS011;11203;50.870;20.682;2022-09-27T16:47:27;45.50;;;36.55;;
21761;SDS011;11203;50.870;20.682;2022-09-27T16:49:54;56.85;;;40.67;;
21761;SDS011;11203;50.870;20.682;2022-09-27T16:52:38;57.03;;;46.97;;
21761;SDS011;11203;50.870;20.682;2022-09-27T16:55:06;45.70;;;37.67;;
21761;SDS011;11203;50.870;20.682;2022-09-27T16:57:32;63.95;;;46.95;;
21761;SDS011;11203;50.870;20.682;2022-09-27T16:59:59;79.97;;;67.47;;
21761;SDS011;11203;50.870;20.682;2022-09-27T17:02:26;60.50;;;48.35;;
21761;SDS011;11203;50.870;20.682;2022-09-27T17:04:52;77.65;;;57.95;;
21761;SDS011;11203;50.870;20.682;2022-09-27T17:07:19;87.53;;;59.97;;
21761;SDS011;11203;50.870;20.682;2022-09-27T17:09:45;111.68;;;70.45;;
21761;SDS011;11203;50.870;20.682;2022-09-27T17:12:12;167.13;;;100.43;;
21761;SDS011;11203;50.870;20.682;2022-09-27T17:14:39;101.57;;;63.78;;
21761;SDS011;11203;50.870;20.682;2022-09-27T17:17:05;123.95;;;72.53;;
21761;SDS011;11203;50.870;20.682;2022-09-27T17:19:31;185.07;;;98.88;;
21761;SDS011;11203;50.870;20.682;2022-09-27T17:21:59;174.48;;;95.35;;
21761;SDS011;11203;50.870;20.682;2022-09-27T17:24:25;164.30;;;92.40;;
21761;SDS011;11203;50.870;20.682;2022-09-27T17:26:51;194.45;;;107.75;;
21761;SDS011;11203;50.870;20.682;2022-09-27T17:29:18;127.63;;;85.13;;
21761;SDS011;11203;50.870;20.682;2022-09-27T17:31:44;86.75;;;62.25;;
21761;SDS011;11203;50.870;20.682;2022-09-27T17:34:11;218.43;;;144.57;;
21761;SDS011;11203;50.870;20.682;2022-09-27T17:36:39;118.38;;;86.35;;
21761;SDS011;11203;50.870;20.682;2022-09-27T17:39:11;76.20;;;55.65;;
21761;SDS011;11203;50.870;20.682;2022-09-27T17:41:39;141.38;;;92.53;;
21761;SDS011;11203;50.870;20.682;2022-09-27T17:44:06;291.02;;;167.70;;
21761;SDS011;11203;50.870;20.682;2022-09-27T17:46:39;344.30;;;190.20;;